Time;durP1;ratioP1;P1;durP2;ratioP2;P2;SDS_P1;SDS_P2;PMS_P1;PMS_P2;Temp;Humidity;BMP_temperature;BMP_pressure;BME280_temperature;BME280_humidity;BME280_pressure;Samples;Min_cycle;Max_cycle;Signal;HPM_P1;HPM_P2
2023/06/20 00:01:11;;;;;;;13.30;12.00;;;22.90;99.90;;;;;;5085176;28;20479;-62
2023/06/20 00:03:38;;;;;;;12.63;11.43;;;23.00;99.90;;;;;;5071018;28;20491;-62
2023/06/20 00:06:06;;;;;;;11.60;10.50;;;23.10;99.90;;;;;;5090170;27;20490;-64
2023/06/20 00:08:32;;;;;;;13.13;11.53;;;23.10;99.90;;;;;;5073170;28;20521;-62
2023/06/20 00:10:59;;;;;;;13.50;12.10;;;23.20;99.90;;;;;;5070540;28;20627;-62
2023/06/20 00:13:26;;;;;;;13.23;11.93;;;23.40;99.90;;;;;;5071365;28;20492;-62
2023/06/20 00:15:53;;;;;;;11.77;10.77;;;23.50;99.90;;;;;;5071534;28;20491;-61
2023/06/20 00:18:19;;;;;;;13.50;12.10;;;23.50;99.90;;;;;;5071763;28;20534;-62
2023/06/20 00:20:47;;;;;;;11.40;10.30;;;23.60;99.90;;;;;;5071530;28;20475;-62
2023/06/20 00:23:16;;;;;;;12.47;11.20;;;23.60;99.90;;;;;;5071933;28;20476;-62
2023/06/20 00:25:42;;;;;;;12.47;11.37;;;23.50;99.90;;;;;;5071594;28;20584;-62
2023/06/20 00:28:11;;;;;;;29.07;11.37;;;23.40;99.90;;;;;;5074647;28;20838;-62
2023/06/20 00:30:37;;;;;;;14.20;12.83;;;23.30;99.90;;;;;;5087177;27;21208;-62
2023/06/20 00:33:04;;;;;;;12.23;11.17;;;23.10;99.90;;;;;;5091220;27;20472;-62
2023/06/20 00:35:31;;;;;;;16.30;11.40;;;23.20;99.90;;;;;;5068762;28;20476;-62
2023/06/20 00:37:57;;;;;;;13.70;12.50;;;23.30;99.90;;;;;;5063698;28;20475;-62
2023/06/20 00:40:25;;;;;;;11.83;10.70;;;23.30;99.90;;;;;;5086153;28;20487;-62
2023/06/20 00:42:52;;;;;;;18.43;12.13;;;23.50;99.90;;;;;;5091037;27;21089;-62
2023/06/20 00:45:28;;;;;;;13.70;11.50;;;23.50;99.90;;;;;;5089200;27;20478;-62
2023/06/20 00:47:57;;;;;;;11.60;10.60;;;23.40;99.90;;;;;;5078312;28;20571;-62
2023/06/20 00:50:26;;;;;;;11.77;10.63;;;23.50;99.90;;;;;;5079058;28;20488;-61
2023/06/20 00:52:58;;;;;;;13.03;11.70;;;23.40;99.90;;;;;;5091116;28;20483;-61
2023/06/20 00:55:27;;;;;;;12.87;10.77;;;23.20;99.90;;;;;;5094388;28;20475;-61
2023/06/20 00:57:57;;;;;;;15.57;12.00;;;23.10;99.90;;;;;;5090424;28;20561;-61
2023/06/20 01:00:24;;;;;;;16.03;13.03;;;23.20;99.90;;;;;;5091932;28;21486;-61
2023/06/20 01:02:52;;;;;;;19.60;13.10;;;23.20;99.90;;;;;;5069368;28;20471;-61
2023/06/20 01:05:27;;;;;;;13.60;12.20;;;23.10;99.90;;;;;;5094522;28;20473;-61
2023/06/20 01:07:59;;;;;;;15.30;12.60;;;23.00;99.90;;;;;;5093419;28;20832;-62
2023/06/20 01:10:38;;;;;;;13.57;12.40;;;23.00;99.90;;;;;;5095637;28;20484;-62
2023/06/20 01:13:12;;;;;;;13.53;12.23;;;23.10;99.90;;;;;;5091797;28;20481;-61
2023/06/20 01:15:43;;;;;;;14.53;13.07;;;23.20;99.90;;;;;;5088279;28;20479;-61
2023/06/20 01:18:19;;;;;;;14.33;12.57;;;23.10;99.90;;;;;;5092763;28;20495;-62
2023/06/20 01:20:52;;;;;;;24.07;13.37;;;23.20;99.90;;;;;;5094030;28;20549;-62
2023/06/20 01:23:28;;;;;;;14.07;12.50;;;23.30;99.90;;;;;;5066121;28;21052;-61
2023/06/20 01:26:02;;;;;;;21.93;13.80;;;23.20;99.90;;;;;;5075280;28;20557;-62
2023/06/20 01:28:38;;;;;;;19.50;14.17;;;23.00;99.90;;;;;;5065231;28;21146;-62
2023/06/20 01:31:11;;;;;;;16.07;14.53;;;22.70;99.90;;;;;;5090484;28;20482;-62
2023/06/20 01:33:48;;;;;;;15.03;13.40;;;22.40;99.90;;;;;;5094500;28;20475;-62
2023/06/20 01:36:18;;;;;;;15.87;14.20;;;22.10;99.90;;;;;;5065368;28;20531;-62
2023/06/20 01:38:48;;;;;;;16.63;14.93;;;21.90;99.90;;;;;;5092437;28;20561;-61
2023/06/20 01:41:20;;;;;;;22.77;16.30;;;21.90;99.90;;;;;;5093998;28;20471;-61
2023/06/20 01:43:49;;;;;;;27.67;18.00;;;22.00;99.90;;;;;;5066157;28;20502;-63
2023/06/20 01:46:17;;;;;;;19.93;16.67;;;21.90;99.90;;;;;;5093572;28;20764;-62
2023/06/20 01:48:46;;;;;;;17.30;15.40;;;22.00;99.90;;;;;;5065054;28;20506;-61
2023/06/20 01:51:14;;;;;;;24.90;14.70;;;22.10;99.90;;;;;;5093217;28;20470;-61
2023/06/20 01:53:43;;;;;;;19.13;15.70;;;22.20;99.90;;;;;;5089293;28;20481;-61
2023/06/20 01:56:13;;;;;;;18.43;14.53;;;;;;;;;;5093187;28;20899;-61
2023/06/20 01:58:41;;;;;;;18.23;15.70;;;22.50;99.90;;;;;;5092941;28;20504;-61
2023/06/20 02:01:08;;;;;;;15.50;13.97;;;22.50;99.90;;;;;;5089954;28;20573;-61
2023/06/20 02:03:36;;;;;;;16.33;14.60;;;22.50;99.90;;;;;;5091915;28;20518;-62
2023/06/20 02:06:04;;;;;;;18.30;14.97;;;22.60;99.90;;;;;;5092303;28;21009;-62
2023/06/20 02:08:32;;;;;;;15.90;14.23;;;22.60;99.90;;;;;;5093111;28;20478;-61
2023/06/20 02:11:00;;;;;;;16.37;14.67;;;22.60;99.90;;;;;;5093743;28;20901;-61
2023/06/20 02:13:29;;;;;;;21.87;16.30;;;22.60;99.90;;;;;;5093540;28;20478;-61
2023/06/20 02:15:57;;;;;;;15.07;13.57;;;22.50;99.90;;;;;;5092155;28;20997;-61
2023/06/20 02:18:24;;;;;;;15.20;13.70;;;22.50;99.90;;;;;;5092063;28;21344;-61
2023/06/20 02:20:53;;;;;;;17.20;15.33;;;23.10;99.90;;;;;;5093083;28;20540;-61
2023/06/20 02:23:26;;;;;;;22.43;17.50;;;22.50;99.90;;;;;;5092767;28;20527;-61
2023/06/20 02:25:55;;;;;;;28.10;17.73;;;22.40;99.90;;;;;;5093208;28;20474;-61
2023/06/20 02:28:22;;;;;;;20.60;17.90;;;22.40;99.90;;;;;;5091995;28;20565;-62
2023/06/20 02:30:54;;;;;;;21.10;16.40;;;22.10;99.90;;;;;;5091946;28;20480;-61
2023/06/20 02:33:22;;;;;;;25.03;18.80;;;22.00;99.90;;;;;;5093740;28;20486;-62
2023/06/20 02:35:50;;;;;;;21.37;19.07;;;21.80;99.90;;;;;;5091833;28;20482;-61
2023/06/20 02:38:17;;;;;;;18.10;16.20;;;21.70;99.90;;;;;;5092606;28;20574;-61
2023/06/20 02:40:44;;;;;;;22.70;18.83;;;21.80;99.90;;;;;;5093813;28;20565;-62
2023/06/20 02:43:11;;;;;;;23.03;18.13;;;;;;;;;;5093559;28;21182;-61
2023/06/20 02:45:38;;;;;;;21.93;17.27;;;22.00;99.90;;;;;;5092479;28;20671;-61
2023/06/20 02:48:23;;;;;;;18.37;16.53;;;22.00;99.90;;;;;;5092973;28;20478;-62
2023/06/20 02:50:59;;;;;;;19.53;17.47;;;22.10;99.90;;;;;;5065448;28;20488;-62
2023/06/20 02:53:34;;;;;;;17.70;15.90;;;22.10;99.90;;;;;;5077171;28;20481;-61
2023/06/20 02:56:02;;;;;;;19.43;17.40;;;22.10;99.90;;;;;;5079185;28;20531;-62
2023/06/20 02:58:31;;;;;;;16.40;14.80;;;22.20;99.90;;;;;;5097304;28;20828;-62
2023/06/20 03:00:59;;;;;;;17.43;15.57;;;22.10;99.90;;;;;;5096225;28;20482;-61
2023/06/20 03:03:31;;;;;;;23.37;17.13;;;22.10;99.90;;;;;;5098512;28;20474;-62
2023/06/20 03:05:59;;;;;;;22.40;17.57;;;22.10;99.90;;;;;;5093680;28;20904;-62
2023/06/20 03:08:28;;;;;;;18.97;16.73;;;22.10;99.90;;;;;;5094226;28;20476;-62
2023/06/20 03:10:56;;;;;;;29.93;16.50;;;22.00;99.90;;;;;;5095927;28;20475;-61
2023/06/20 03:13:23;;;;;;;17.77;15.43;;;22.00;99.90;;;;;;5096535;28;20708;-62
2023/06/20 03:15:50;;;;;;;18.90;16.73;;;21.90;99.90;;;;;;5093742;28;20477;-61
2023/06/20 03:18:17;;;;;;;32.50;18.27;;;21.80;99.90;;;;;;5096010;28;20478;-62
2023/06/20 03:20:46;;;;;;;21.40;17.70;;;21.70;99.90;;;;;;5096435;28;20470;-62
2023/06/20 03:23:13;;;;;;;23.97;16.50;;;21.60;99.90;;;;;;5096964;28;20483;-62
2023/06/20 03:25:39;;;;;;;22.53;17.17;;;21.60;99.90;;;;;;5097364;28;20535;-61
2023/06/20 03:28:06;;;;;;;24.70;19.13;;;21.60;99.90;;;;;;5095972;28;20501;-61
2023/06/20 03:30:33;;;;;;;30.33;18.20;;;21.60;99.90;;;;;;5097202;28;20477;-61
2023/06/20 03:32:59;;;;;;;28.83;19.00;;;21.60;99.90;;;;;;5096643;28;20486;-61
2023/06/20 03:35:26;;;;;;;17.67;15.60;;;21.60;99.90;;;;;;5096219;28;20478;-61
2023/06/20 03:37:54;;;;;;;20.90;17.93;;;21.60;99.90;;;;;;5096064;28;20561;-61
2023/06/20 03:40:21;;;;;;;23.50;14.90;;;21.60;99.90;;;;;;5096485;28;20482;-61
2023/06/20 03:42:51;;;;;;;19.03;17.10;;;21.60;99.90;;;;;;5095461;28;20802;-61
2023/06/20 03:45:18;;;;;;;24.27;17.60;;;21.60;99.90;;;;;;5097031;28;20810;-61
2023/06/20 03:47:44;;;;;;;29.40;18.00;;;21.60;99.90;;;;;;5091701;28;20981;-61
2023/06/20 03:50:11;;;;;;;24.23;15.43;;;21.60;99.90;;;;;;5096201;28;21338;-61
2023/06/20 03:52:38;;;;;;;23.70;18.40;;;21.60;99.90;;;;;;5097199;28;20531;-61
2023/06/20 03:55:07;;;;;;;24.07;16.50;;;21.60;99.90;;;;;;5096246;28;20478;-61
2023/06/20 03:57:34;;;;;;;21.10;17.80;;;21.50;99.90;;;;;;5092448;28;20835;-61
2023/06/20 04:00:04;;;;;;;18.10;15.90;;;21.50;99.90;;;;;;5095822;28;21402;-62
2023/06/20 04:02:31;;;;;;;23.73;16.67;;;21.30;99.90;;;;;;5097242;28;20512;-61
2023/06/20 04:04:58;;;;;;;19.80;16.73;;;21.30;99.90;;;;;;5097012;28;20558;-61
2023/06/20 04:07:25;;;;;;;17.57;15.77;;;21.30;99.90;;;;;;5097315;28;20480;-61
2023/06/20 04:09:51;;;;;;;28.73;17.43;;;21.30;99.90;;;;;;5097709;28;20480;-61
2023/06/20 04:12:19;;;;;;;29.93;17.70;;;21.40;99.90;;;;;;5097682;28;20511;-61
2023/06/20 04:14:46;;;;;;;20.17;17.10;;;21.30;99.90;;;;;;5095929;28;20863;-61
2023/06/20 04:17:13;;;;;;;28.87;17.27;;;21.30;99.90;;;;;;5097353;28;20570;-61
2023/06/20 04:19:39;;;;;;;24.03;20.20;;;21.30;99.90;;;;;;5097463;28;20500;-61
2023/06/20 04:22:08;;;;;;;33.00;17.77;;;21.30;99.90;;;;;;5096190;28;20599;-61
2023/06/20 04:24:36;;;;;;;30.43;19.43;;;21.30;99.90;;;;;;5097681;28;20474;-62
2023/06/20 04:27:03;;;;;;;22.33;19.20;;;21.30;99.90;;;;;;5091771;28;20526;-62
2023/06/20 04:29:31;;;;;;;17.10;15.23;;;21.20;99.90;;;;;;5097102;28;20565;-61
2023/06/20 04:31:58;;;;;;;23.33;16.43;;;21.20;99.90;;;;;;5095846;28;20490;-61
2023/06/20 04:34:24;;;;;;;19.60;16.07;;;21.20;99.90;;;;;;5095790;28;20482;-60
2023/06/20 04:36:51;;;;;;;21.37;17.03;;;;;;;;;;5093596;28;21104;-61
2023/06/20 04:39:18;;;;;;;24.20;16.70;;;21.30;99.90;;;;;;5094531;28;20473;-61
2023/06/20 04:41:45;;;;;;;19.97;16.33;;;21.30;99.90;;;;;;5068406;28;20497;-61
2023/06/20 04:44:12;;;;;;;22.97;18.90;;;;;;;;;;5062382;28;20488;-61
2023/06/20 04:46:40;;;;;;;21.17;18.67;;;21.30;99.90;;;;;;5087656;28;20511;-61
2023/06/20 04:49:07;;;;;;;22.50;19.80;;;21.40;99.90;;;;;;5061729;28;20806;-61
2023/06/20 04:51:34;;;;;;;22.97;19.50;;;21.50;99.90;;;;;;5054336;28;20478;-61
2023/06/20 04:54:01;;;;;;;25.00;19.57;;;21.40;99.90;;;;;;5060520;28;20481;-62
2023/06/20 04:56:27;;;;;;;20.57;17.80;;;21.30;99.90;;;;;;5065997;28;20508;-61
2023/06/20 04:58:59;;;;;;;28.93;21.40;;;;;;;;;;5081350;28;20497;-61
2023/06/20 05:01:26;;;;;;;21.53;18.93;;;21.40;99.90;;;;;;5076614;28;20482;-62
2023/06/20 05:03:54;;;;;;;28.17;21.73;;;21.40;99.90;;;;;;5061930;28;20497;-62
2023/06/20 05:06:20;;;;;;;25.23;21.27;;;21.40;99.90;;;;;;5082744;28;20790;-62
2023/06/20 05:08:47;;;;;;;23.93;19.50;;;20.70;99.90;;;;;;5061548;28;20475;-62
2023/06/20 05:11:14;;;;;;;28.47;21.80;;;21.30;99.90;;;;;;5090060;28;20500;-62
2023/06/20 05:13:40;;;;;;;28.83;22.53;;;21.40;99.90;;;;;;5065067;28;20479;-61
2023/06/20 05:16:07;;;;;;;22.67;20.20;;;;;;;;;;5069642;28;20488;-61
2023/06/20 05:18:34;;;;;;;30.10;21.13;;;21.50;99.90;;;;;;5071533;28;20520;-61
2023/06/20 05:21:02;;;;;;;31.63;21.50;;;21.60;99.90;;;;;;5092776;28;20474;-61
2023/06/20 05:23:29;;;;;;;27.20;21.30;;;21.60;99.90;;;;;;5093426;28;20689;-61
2023/06/20 05:25:56;;;;;;;23.90;21.33;;;21.70;99.90;;;;;;5093960;28;20547;-61
2023/06/20 05:28:22;;;;;;;25.50;20.53;;;21.90;99.90;;;;;;5090422;28;20743;-62
2023/06/20 05:30:49;;;;;;;28.17;22.43;;;22.00;99.90;;;;;;5078539;28;20484;-62
2023/06/20 05:33:16;;;;;;;32.70;22.53;;;22.10;99.90;;;;;;5095050;28;20482;-61
2023/06/20 05:35:44;;;;;;;31.27;22.73;;;22.20;99.90;;;;;;5093560;28;21072;-61
2023/06/20 05:38:12;;;;;;;25.57;22.17;;;22.30;99.90;;;;;;5094893;28;20773;-61
2023/06/20 05:40:39;;;;;;;35.40;22.70;;;20.70;99.90;;;;;;5094223;28;20755;-61
2023/06/20 05:43:06;;;;;;;23.50;21.00;;;22.50;99.90;;;;;;5094364;28;20485;-62
2023/06/20 05:45:32;;;;;;;25.87;21.37;;;22.60;99.90;;;;;;5094392;28;20485;-61
2023/06/20 05:47:59;;;;;;;24.30;21.70;;;22.60;99.90;;;;;;5094604;28;20850;-62
2023/06/20 05:50:26;;;;;;;23.40;20.87;;;22.70;99.90;;;;;;5094280;28;20482;-61
2023/06/20 05:52:53;;;;;;;24.00;21.40;;;22.80;99.90;;;;;;5094286;28;20478;-61
2023/06/20 05:55:21;;;;;;;27.27;20.90;;;22.90;99.90;;;;;;5094363;28;20482;-61
2023/06/20 05:57:47;;;;;;;24.00;21.20;;;23.00;99.90;;;;;;5094040;28;20746;-61
2023/06/20 06:00:15;;;;;;;25.43;19.80;;;23.00;99.90;;;;;;5094499;28;20528;-62
2023/06/20 06:02:45;;;;;;;29.67;22.23;;;23.00;99.90;;;;;;5094415;28;20485;-61
2023/06/20 06:05:11;;;;;;;23.47;20.97;;;23.20;99.90;;;;;;5094150;28;20496;-61
2023/06/20 06:07:38;;;;;;;24.87;20.97;;;23.30;99.90;;;;;;5095075;28;20811;-61
2023/06/20 06:10:07;;;;;;;21.80;19.60;;;23.40;99.90;;;;;;5089941;28;20889;-61
2023/06/20 06:12:35;;;;;;;30.90;21.20;;;23.50;99.90;;;;;;5094398;28;20833;-61
2023/06/20 06:15:03;;;;;;;23.53;21.03;;;23.60;99.90;;;;;;5064274;28;21150;-61
2023/06/20 06:17:30;;;;;;;29.37;21.30;;;23.60;99.90;;;;;;5093067;28;20503;-61
2023/06/20 06:19:57;;;;;;;27.13;21.10;;;23.80;99.90;;;;;;5093865;28;20972;-61
2023/06/20 06:22:24;;;;;;;33.83;22.30;;;23.90;99.90;;;;;;5094498;28;20491;-61
2023/06/20 06:24:51;;;;;;;25.40;22.17;;;23.00;99.90;;;;;;5094366;28;20582;-60
2023/06/20 06:27:18;;;;;;;26.63;20.43;;;24.00;99.90;;;;;;5095500;28;20477;-61
2023/06/20 06:29:46;;;;;;;30.03;21.30;;;24.10;99.90;;;;;;5097075;28;20487;-61
2023/06/20 06:32:16;;;;;;;21.77;18.50;;;24.20;99.90;;;;;;5098214;28;20471;-61
2023/06/20 06:34:43;;;;;;;20.63;17.80;;;24.50;99.90;;;;;;5098600;28;20527;-61
2023/06/20 06:37:10;;;;;;;27.07;20.00;;;24.50;99.90;;;;;;5092681;28;20482;-61
2023/06/20 06:39:38;;;;;;;22.47;20.00;;;24.60;99.90;;;;;;5097589;28;20491;-61
2023/06/20 06:42:05;;;;;;;25.10;20.47;;;24.60;99.90;;;;;;5094690;28;20472;-61
2023/06/20 06:44:32;;;;;;;22.27;19.97;;;24.60;99.90;;;;;;5092540;28;20491;-60
2023/06/20 06:47:01;;;;;;;25.23;21.60;;;24.70;99.90;;;;;;5093223;28;20530;-61
2023/06/20 06:49:28;;;;;;;27.90;19.33;;;24.60;99.90;;;;;;5041956;28;20525;-61
2023/06/20 06:51:56;;;;;;;26.43;22.00;;;24.70;99.90;;;;;;5081144;28;21034;-61
2023/06/20 06:54:22;;;;;;;25.33;22.20;;;24.80;99.90;;;;;;5071126;28;20490;-61
2023/06/20 06:56:49;;;;;;;26.80;20.30;;;24.60;99.90;;;;;;5062554;28;20854;-61
2023/06/20 06:59:16;;;;;;;26.70;23.70;;;24.90;99.90;;;;;;5092630;28;21074;-61
2023/06/20 07:01:42;;;;;;;22.67;19.83;;;25.10;99.90;;;;;;5089761;28;20876;-61
2023/06/20 07:04:10;;;;;;;31.00;20.00;;;25.30;99.90;;;;;;5075115;28;20891;-60
2023/06/20 07:06:37;;;;;;;29.93;22.50;;;25.40;99.90;;;;;;5071996;28;20824;-60
2023/06/20 07:09:04;;;;;;;34.33;21.13;;;25.60;99.90;;;;;;5064300;28;20986;-60
2023/06/20 07:11:30;;;;;;;24.77;19.20;;;25.80;99.90;;;;;;5086338;28;20482;-60
2023/06/20 07:13:57;;;;;;;20.13;17.83;;;26.10;99.90;;;;;;5081399;28;20839;-60
2023/06/20 07:16:25;;;;;;;23.40;19.27;;;26.20;99.90;;;;;;5089843;28;20895;-61
2023/06/20 07:18:52;;;;;;;19.67;17.57;;;26.30;99.30;;;;;;5071537;28;20821;-60
2023/06/20 07:21:20;;;;;;;21.00;19.00;;;26.40;99.20;;;;;;5081393;28;20480;-61
2023/06/20 07:23:46;;;;;;;20.00;17.70;;;26.70;99.60;;;;;;5078779;28;21053;-61
2023/06/20 07:26:13;;;;;;;26.17;18.10;;;27.10;99.60;;;;;;5096795;28;20831;-61
2023/06/20 07:28:40;;;;;;;23.80;17.50;;;27.30;98.90;;;;;;5085573;28;20514;-60
2023/06/20 07:31:06;;;;;;;20.03;17.90;;;27.50;98.70;;;;;;5094944;28;20850;-61
2023/06/20 07:33:33;;;;;;;25.10;16.53;;;27.60;96.70;;;;;;5095892;28;20480;-61
2023/06/20 07:36:00;;;;;;;19.40;16.87;;;27.50;97.00;;;;;;5088293;28;20886;-61
2023/06/20 07:38:28;;;;;;;18.03;16.27;;;27.40;96.70;;;;;;5078300;28;20503;-61
2023/06/20 07:40:55;;;;;;;20.73;16.10;;;27.50;96.40;;;;;;5081020;28;20483;-61
2023/06/20 07:43:24;;;;;;;20.00;16.67;;;27.70;96.90;;;;;;5082981;27;20518;-61
2023/06/20 07:45:52;;;;;;;16.93;15.47;;;;;;;;;;5096364;28;21036;-61
2023/06/20 07:48:18;;;;;;;15.63;14.20;;;28.00;95.90;;;;;;5095993;28;20452;-61
2023/06/20 07:50:45;;;;;;;15.70;14.30;;;28.10;95.10;;;;;;5095443;28;20490;-61
2023/06/20 07:53:12;;;;;;;14.77;13.47;;;;;;;;;;5096081;28;20482;-61
2023/06/20 07:55:40;;;;;;;16.00;14.40;;;28.50;95.60;;;;;;5096050;28;20480;-61
2023/06/20 07:58:08;;;;;;;14.97;13.67;;;28.60;94.90;;;;;;5053540;28;20477;-61
2023/06/20 08:00:34;;;;;;;15.33;14.03;;;28.90;94.60;;;;;;5086630;28;20471;-61
2023/06/20 08:03:01;;;;;;;13.90;12.60;;;29.00;93.50;;;;;;5055612;28;20852;-61
2023/06/20 08:05:28;;;;;;;14.60;13.10;;;28.80;93.60;;;;;;5077960;28;20495;-61
2023/06/20 08:07:55;;;;;;;14.90;12.40;;;;;;;;;;5092871;28;20464;-61
2023/06/20 08:10:21;;;;;;;12.20;11.10;;;28.80;92.50;;;;;;5095348;28;20547;-61
2023/06/20 08:12:49;;;;;;;14.40;13.00;;;28.80;92.00;;;;;;5077025;28;20467;-61
2023/06/20 08:15:16;;;;;;;15.73;10.60;;;28.70;91.80;;;;;;5077254;28;20551;-61
2023/06/20 08:17:43;;;;;;;11.63;10.47;;;28.40;91.10;;;;;;5073631;28;20488;-61
2023/06/20 08:20:09;;;;;;;12.00;10.80;;;28.30;89.70;;;;;;5087010;28;20998;-61
2023/06/20 08:22:36;;;;;;;11.90;10.80;;;;;;;;;;5050792;28;20645;-61
2023/06/20 08:25:04;;;;;;;16.00;11.47;;;28.10;90.90;;;;;;5076972;28;20616;-61
2023/06/20 08:27:30;;;;;;;11.50;10.30;;;28.10;90.30;;;;;;5055864;28;20534;-61
2023/06/20 08:29:58;;;;;;;16.87;10.53;;;28.40;91.50;;;;;;5081581;28;20485;-63
2023/06/20 08:32:25;;;;;;;11.57;10.53;;;28.60;89.40;;;;;;5077876;27;20457;-62
2023/06/20 08:34:52;;;;;;;12.83;11.63;;;28.80;90.50;;;;;;5082018;28;20460;-61
2023/06/20 08:37:21;;;;;;;10.63;9.73;;;;;;;;;;5069696;28;20481;-61
2023/06/20 08:39:48;;;;;;;12.53;11.00;;;29.00;88.10;;;;;;5058948;28;20915;-61
2023/06/20 08:42:15;;;;;;;13.33;11.93;;;29.00;86.70;;;;;;5070562;28;20883;-61
2023/06/20 08:44:42;;;;;;;11.70;10.70;;;29.20;90.40;;;;;;5072964;28;20903;-61
2023/06/20 08:47:10;;;;;;;9.90;8.90;;;29.30;89.40;;;;;;5079856;27;20475;-61
2023/06/20 08:49:36;;;;;;;11.93;10.37;;;29.60;88.20;;;;;;5091862;27;20486;-62
2023/06/20 08:52:09;;;;;;;9.63;8.83;;;29.60;85.10;;;;;;5073746;28;20490;-62
2023/06/20 08:54:39;;;;;;;10.00;9.10;;;29.30;82.60;;;;;;5091856;27;20862;-62
2023/06/20 08:57:07;;;;;;;10.43;9.27;;;29.10;84.60;;;;;;5077812;27;20486;-62
2023/06/20 08:59:34;;;;;;;15.13;9.53;;;29.30;85.00;;;;;;5075709;28;20586;-62
2023/06/20 09:02:01;;;;;;;9.10;8.30;;;29.40;84.20;;;;;;5060103;28;20821;-62
2023/06/20 09:04:29;;;;;;;8.43;7.73;;;29.50;84.50;;;;;;5070228;28;20803;-62
2023/06/20 09:06:57;;;;;;;13.50;8.30;;;29.90;82.80;;;;;;5067249;28;20496;-62
2023/06/20 09:09:24;;;;;;;8.93;8.03;;;29.80;83.40;;;;;;5074841;28;20508;-62
2023/06/20 09:11:56;;;;;;;8.20;7.50;;;29.80;82.80;;;;;;5064330;28;20456;-63
2023/06/20 09:14:26;;;;;;;8.00;7.30;;;29.80;81.10;;;;;;5058653;28;20599;-62
2023/06/20 09:16:52;;;;;;;7.63;6.93;;;29.90;84.80;;;;;;5060911;28;21014;-62
2023/06/20 09:19:19;;;;;;;8.33;7.50;;;30.30;82.20;;;;;;5074647;28;20917;-62
2023/06/20 09:21:47;;;;;;;8.70;8.03;;;30.40;79.10;;;;;;5055451;28;20461;-62
2023/06/20 09:24:17;;;;;;;8.17;7.37;;;30.30;78.00;;;;;;5061554;28;20458;-63
2023/06/20 09:26:45;;;;;;;9.90;8.10;;;30.30;79.80;;;;;;5066519;27;20462;-62
2023/06/20 09:29:14;;;;;;;8.00;7.40;;;30.40;79.30;;;;;;5076963;27;20560;-62
2023/06/20 09:31:43;;;;;;;8.83;8.03;;;30.30;80.00;;;;;;5054754;28;20485;-62
2023/06/20 09:34:11;;;;;;;19.40;8.70;;;30.40;80.00;;;;;;5072727;27;20476;-62
2023/06/20 09:36:39;;;;;;;9.40;8.33;;;30.50;81.70;;;;;;5067697;28;20478;-63
2023/06/20 09:39:10;;;;;;;8.40;7.70;;;30.60;80.50;;;;;;5061320;28;20485;-63
2023/06/20 09:41:37;;;;;;;13.50;8.23;;;30.90;81.80;;;;;;5056981;28;20866;-64
2023/06/20 09:44:03;;;;;;;8.20;7.40;;;31.00;81.40;;;;;;5047601;28;20468;-64
2023/06/20 09:46:30;;;;;;;8.00;7.30;;;31.10;79.70;;;;;;5073991;28;20476;-63
2023/06/20 09:48:57;;;;;;;10.90;8.40;;;31.30;77.00;;;;;;5082263;28;20857;-63
2023/06/20 09:51:27;;;;;;;14.50;8.73;;;31.50;79.00;;;;;;5082612;28;20844;-63
2023/06/20 09:53:57;;;;;;;17.57;9.47;;;;;;;;;;5073662;28;20549;-63
2023/06/20 09:56:27;;;;;;;9.30;8.50;;;31.30;80.10;;;;;;5088221;28;20452;-64
2023/06/20 09:58:57;;;;;;;10.67;9.23;;;31.30;81.10;;;;;;5090521;27;20488;-63
2023/06/20 10:01:25;;;;;;;10.00;8.67;;;31.50;79.80;;;;;;5090725;28;20485;-63
2023/06/20 10:03:53;;;;;;;11.13;9.00;;;31.40;76.60;;;;;;5094286;28;20761;-62
2023/06/20 10:06:21;;;;;;;11.23;10.03;;;31.40;79.00;;;;;;5089529;27;21000;-62
2023/06/20 10:08:48;;;;;;;9.47;8.67;;;31.40;78.00;;;;;;5079920;28;20510;-62
2023/06/20 10:11:15;;;;;;;8.77;7.97;;;31.40;76.70;;;;;;5065704;28;20463;-62
2023/06/20 10:13:45;;;;;;;9.60;8.80;;;31.20;76.50;;;;;;5058943;28;20476;-61
2023/06/20 10:16:12;;;;;;;9.93;8.60;;;31.20;76.70;;;;;;5069595;27;20892;-62
2023/06/20 10:18:39;;;;;;;9.83;8.20;;;31.20;77.30;;;;;;5080803;28;20881;-62
2023/06/20 10:21:06;;;;;;;8.83;8.23;;;31.10;77.00;;;;;;5073897;28;20845;-62
2023/06/20 10:23:36;;;;;;;12.03;8.30;;;30.90;77.00;;;;;;5081626;28;20472;-62
2023/06/20 10:26:05;;;;;;;9.00;8.30;;;30.90;77.20;;;;;;5056569;28;20830;-62
2023/06/20 10:28:32;;;;;;;9.00;8.23;;;30.90;75.10;;;;;;5059437;28;20979;-62
2023/06/20 10:31:03;;;;;;;11.77;8.20;;;30.90;74.90;;;;;;5097274;28;20492;-62
2023/06/20 10:33:31;;;;;;;8.50;7.90;;;31.10;76.90;;;;;;5071123;28;21165;-63
2023/06/20 10:36:01;;;;;;;9.43;8.43;;;31.20;74.50;;;;;;5029160;28;20460;-63
2023/06/20 10:38:29;;;;;;;9.93;8.93;;;31.40;77.40;;;;;;5050902;28;20460;-63
2023/06/20 10:41:13;;;;;;;17.87;9.20;;;;;;;;;;5058484;28;20469;-62
2023/06/20 10:43:51;;;;;;;9.50;8.37;;;31.40;74.20;;;;;;5073825;28;20477;-62
2023/06/20 10:46:21;;;;;;;8.40;7.80;;;31.40;74.50;;;;;;5065386;28;20487;-62
2023/06/20 10:48:48;;;;;;;11.23;8.00;;;31.70;76.30;;;;;;5083375;28;20807;-63
2023/06/20 10:51:14;;;;;;;9.80;8.80;;;31.80;73.20;;;;;;5094647;28;20697;-63
2023/06/20 10:53:41;;;;;;;9.30;8.53;;;32.00;74.30;;;;;;5082813;27;20459;-62
2023/06/20 10:56:08;;;;;;;13.60;8.10;;;31.90;75.90;;;;;;5095974;27;21218;-63
2023/06/20 10:58:35;;;;;;;9.30;8.40;;;31.90;73.80;;;;;;5071805;27;20549;-63
2023/06/20 11:01:01;;;;;;;9.30;8.33;;;32.10;73.50;;;;;;5099755;27;21017;-62
2023/06/20 11:03:30;;;;;;;13.80;8.37;;;32.20;72.70;;;;;;5106235;27;20476;-63
2023/06/20 11:05:57;;;;;;;8.67;7.90;;;32.00;72.50;;;;;;5100749;27;20754;-63
2023/06/20 11:08:26;;;;;;;8.90;8.20;;;32.20;74.10;;;;;;5078042;27;20762;-62
2023/06/20 11:10:53;;;;;;;11.77;8.07;;;31.70;71.40;;;;;;5092058;27;20634;-62
2023/06/20 11:13:20;;;;;;;8.50;7.83;;;31.50;73.00;;;;;;5089288;27;21008;-63
2023/06/20 11:15:47;;;;;;;9.47;8.77;;;31.40;73.20;;;;;;5105193;27;20480;-63
2023/06/20 11:18:13;;;;;;;9.77;7.30;;;31.50;72.10;;;;;;5096541;27;20512;-63
2023/06/20 11:20:42;;;;;;;12.60;8.43;;;31.70;76.20;;;;;;5088681;27;20468;-63
2023/06/20 11:23:12;;;;;;;11.87;8.20;;;31.80;73.00;;;;;;5089288;27;20454;-63
2023/06/20 11:25:40;;;;;;;9.67;8.87;;;32.00;73.20;;;;;;5080107;27;20484;-63
2023/06/20 11:28:09;;;;;;;10.27;9.00;;;31.90;71.90;;;;;;5079520;27;20458;-62
2023/06/20 11:30:38;;;;;;;9.70;8.70;;;31.50;72.30;;;;;;5083576;27;21040;-62
2023/06/20 11:33:07;;;;;;;9.00;8.20;;;31.30;72.30;;;;;;5093065;27;20450;-62
2023/06/20 11:35:43;;;;;;;9.67;8.77;;;31.40;72.60;;;;;;5096858;27;20489;-62
2023/06/20 11:38:11;;;;;;;9.73;8.67;;;31.60;72.60;;;;;;5074252;27;20980;-62
2023/06/20 11:40:38;;;;;;;8.93;7.90;;;31.90;74.60;;;;;;5090108;27;20565;-62
2023/06/20 11:43:05;;;;;;;9.03;8.23;;;32.20;71.80;;;;;;5104251;27;20458;-62
2023/06/20 11:45:33;;;;;;;12.37;8.97;;;32.70;71.00;;;;;;5103141;27;20603;-62
2023/06/20 11:48:09;;;;;;;9.70;8.80;;;32.70;69.10;;;;;;5091313;27;20455;-62
2023/06/20 11:50:36;;;;;;;20.73;8.27;;;32.70;70.00;;;;;;5096513;27;20539;-62
2023/06/20 11:53:05;;;;;;;8.67;7.40;;;32.70;66.60;;;;;;5081598;27;20456;-62
2023/06/20 11:55:49;;;;;;;7.90;7.23;;;33.20;72.80;;;;;;5076551;27;20610;-63
2023/06/20 11:58:16;;;;;;;10.30;8.20;;;33.50;67.50;;;;;;5057510;27;20466;-63
2023/06/20 12:00:45;;;;;;;7.70;7.00;;;33.60;67.20;;;;;;5088854;27;20597;-62
2023/06/20 12:03:14;;;;;;;8.37;7.57;;;33.70;65.00;;;;;;5079384;27;21120;-62
2023/06/20 12:05:41;;;;;;;7.27;6.73;;;33.30;66.20;;;;;;5070740;27;20611;-63
2023/06/20 12:08:09;;;;;;;10.90;8.00;;;32.90;65.70;;;;;;5094862;27;20466;-63
2023/06/20 12:10:39;;;;;;;19.97;9.10;;;32.40;66.90;;;;;;5095002;27;20444;-62
2023/06/20 12:13:06;;;;;;;10.20;8.17;;;32.20;67.00;;;;;;5097348;27;20489;-62
2023/06/20 12:15:33;;;;;;;9.73;8.70;;;32.30;68.60;;;;;;5070670;27;20795;-63
2023/06/20 12:17:59;;;;;;;15.17;7.47;;;32.30;67.10;;;;;;5098290;27;20488;-62
2023/06/20 12:20:26;;;;;;;12.90;8.70;;;32.40;67.20;;;;;;5065201;27;20867;-62
2023/06/20 12:22:53;;;;;;;9.37;8.57;;;32.10;66.80;;;;;;5103040;27;20480;-62
2023/06/20 12:25:21;;;;;;;16.47;9.40;;;32.50;69.50;;;;;;5105469;27;20445;-62
2023/06/20 12:27:47;;;;;;;8.73;8.03;;;32.60;69.40;;;;;;5101269;27;20451;-61
2023/06/20 12:30:14;;;;;;;11.50;8.70;;;32.90;70.70;;;;;;5107242;27;20863;-61
2023/06/20 12:32:47;;;;;;;20.17;10.23;;;33.20;72.40;;;;;;5098591;27;21023;-61
2023/06/20 12:35:14;;;;;;;9.23;8.30;;;33.00;69.50;;;;;;5089268;27;20469;-61
2023/06/20 12:37:41;;;;;;;10.37;9.47;;;33.00;70.20;;;;;;5096090;27;20845;-61
2023/06/20 12:40:10;;;;;;;11.57;10.37;;;32.80;70.40;;;;;;5095079;27;20481;-61